Time;durP1;ratioP1;P1;durP2;ratioP2;P2;SDS_P1;SDS_P2;PMS_P1;PMS_P2;Temp;Humidity;BMP_temperature;BMP_pressure;BME280_temperature;BME280_humidity;BME280_pressure;Samples;Min_cycle;Max_cycle;Signal;HPM_P1;HPM_P2
2024/01/19 00:04:39;;;;;;;13.17;6.53;;;-1.30;1.00;;;;;;10311174;28;20197;-84
2024/01/19 00:10:02;;;;;;;12.97;6.53;;;-1.30;1.00;;;;;;10309801;28;20244;-85
2024/01/19 00:15:25;;;;;;;15.67;6.60;;;-1.30;1.00;;;;;;10298738;28;20325;-83
2024/01/19 00:20:49;;;;;;;11.97;6.53;;;-1.40;1.00;;;;;;10309986;28;20274;-85
2024/01/19 00:26:11;;;;;;;11.77;6.40;;;-1.40;1.00;;;;;;10309392;28;20203;-77
2024/01/19 00:31:35;;;;;;;12.27;6.40;;;-1.50;1.00;;;;;;10410250;28;20644;-76
2024/01/19 00:36:57;;;;;;;14.77;6.47;;;-1.50;1.00;;;;;;10309339;28;20388;-77
2024/01/19 00:42:19;;;;;;;11.73;6.83;;;-1.60;1.00;;;;;;10319533;28;20246;-76
2024/01/19 00:47:41;;;;;;;16.37;6.80;;;-1.50;99.90;;;;;;10280255;28;20283;-76
2024/01/19 00:53:04;;;;;;;17.00;6.70;;;-1.60;1.00;;;;;;10269704;28;20258;-84
2024/01/19 00:58:26;;;;;;;15.30;6.77;;;-1.60;1.00;;;;;;10268648;28;20197;-83
2024/01/19 01:03:48;;;;;;;15.03;6.83;;;-1.60;99.90;;;;;;10376142;28;20201;-85
2024/01/19 01:09:10;;;;;;;13.33;6.63;;;-1.60;1.00;;;;;;10284990;28;20331;-83
2024/01/19 01:14:33;;;;;;;12.63;5.83;;;-1.70;1.00;;;;;;10415921;28;20210;-83
2024/01/19 01:19:55;;;;;;;17.93;5.50;;;-1.80;1.00;;;;;;10315984;28;20291;-84
2024/01/19 01:25:16;;;;;;;10.33;6.10;;;-1.80;99.90;;;;;;10301140;28;20212;-84
2024/01/19 01:30:40;;;;;;;12.73;5.57;;;-1.80;1.00;;;;;;10276152;28;20219;-78
2024/01/19 01:36:03;;;;;;;13.63;6.33;;;-1.80;1.00;;;;;;10376782;28;20295;-81
2024/01/19 01:41:25;;;;;;;17.67;6.60;;;-1.70;1.00;;;;;;10533319;28;20245;-85
2024/01/19 01:46:46;;;;;;;13.37;5.30;;;-1.70;1.00;;;;;;10403449;28;20272;-83
2024/01/19 01:52:10;;;;;;;18.40;6.73;;;-1.80;1.00;;;;;;10315108;28;20255;-79
2024/01/19 01:57:32;;;;;;;18.33;7.33;;;-1.80;1.00;;;;;;10314059;28;20190;-77
2024/01/19 02:02:53;;;;;;;20.03;8.47;;;-1.80;1.00;;;;;;10314488;28;20194;-81
2024/01/19 02:08:17;;;;;;;20.60;8.30;;;-1.80;1.00;;;;;;10346006;28;20206;-84
2024/01/19 02:13:38;;;;;;;16.20;7.43;;;-1.90;1.00;;;;;;10313243;28;20195;-83
2024/01/19 02:18:59;;;;;;;21.77;8.63;;;-1.90;1.00;;;;;;10302008;28;20238;-86
2024/01/19 02:24:23;;;;;;;18.07;7.63;;;-1.90;1.00;;;;;;10414904;28;20196;-85
2024/01/19 02:29:50;;;;;;;19.50;7.43;;;-1.90;1.00;;;;;;10286823;28;20545;-78
2024/01/19 02:35:12;;;;;;;15.77;7.03;;;-1.90;1.00;;;;;;10276286;28;20224;-78
2024/01/19 02:40:34;;;;;;;15.10;7.60;;;-1.90;1.00;;;;;;10419656;28;20229;-82
2024/01/19 02:45:55;;;;;;;16.53;7.13;;;-1.90;1.00;;;;;;10524715;28;20268;-86
2024/01/19 02:51:16;;;;;;;18.07;6.43;;;-2.10;1.00;;;;;;10524300;28;20223;-87
2024/01/19 02:56:38;;;;;;;15.63;8.20;;;-2.00;1.00;;;;;;10487751;28;20234;-87
2024/01/19 03:01:59;;;;;;;19.93;8.40;;;-2.10;99.90;;;;;;10303088;28;20205;-86
2024/01/19 03:07:20;;;;;;;16.53;8.03;;;-2.10;1.00;;;;;;10413984;28;20208;-86
2024/01/19 03:12:41;;;;;;;20.20;8.17;;;-2.10;1.00;;;;;;10339085;28;20245;-82
2024/01/19 03:18:03;;;;;;;19.10;8.90;;;-2.20;1.00;;;;;;10402527;28;20238;-85
2024/01/19 03:23:25;;;;;;;28.13;12.37;;;-2.20;99.90;;;;;;10311743;28;20486;-77
2024/01/19 03:28:46;;;;;;;22.37;9.93;;;-2.20;99.90;;;;;;10412869;28;20265;-84
2024/01/19 03:34:07;;;;;;;21.63;9.70;;;-2.30;99.90;;;;;;10381552;28;20195;-83
2024/01/19 03:39:28;;;;;;;23.30;9.50;;;-2.40;99.90;;;;;;10472205;28;20446;-77
2024/01/19 03:44:52;;;;;;;18.57;9.23;;;-2.40;1.00;;;;;;10506207;28;20203;-78
2024/01/19 03:50:15;;;;;;;25.53;11.67;;;-2.50;1.00;;;;;;10271344;28;20223;-83
2024/01/19 03:55:37;;;;;;;30.07;10.67;;;-2.50;99.90;;;;;;10371115;28;20245;-84
2024/01/19 04:00:58;;;;;;;25.77;11.57;;;-2.60;99.90;;;;;;10269969;28;20195;-83
2024/01/19 04:06:20;;;;;;;23.83;11.50;;;-2.50;99.90;;;;;;10270606;28;20200;-81
2024/01/19 04:11:43;;;;;;;25.93;11.50;;;-2.50;99.90;;;;;;10298655;28;20451;-79
2024/01/19 04:17:07;;;;;;;30.17;13.63;;;-2.70;99.90;;;;;;10308467;28;20239;-78
2024/01/19 04:22:29;;;;;;;27.80;13.13;;;-2.70;99.90;;;;;;10310229;28;20199;-77
2024/01/19 04:27:50;;;;;;;27.53;12.67;;;-2.70;99.90;;;;;;10309502;28;20203;-77
2024/01/19 04:33:11;;;;;;;25.57;11.53;;;-2.90;99.90;;;;;;10308812;28;20236;-79
2024/01/19 04:38:32;;;;;;;17.60;9.77;;;-2.80;99.90;;;;;;10344961;28;20282;-81
2024/01/19 04:43:54;;;;;;;25.20;10.43;;;-2.80;99.90;;;;;;10518552;28;20494;-77
2024/01/19 04:49:15;;;;;;;24.50;10.60;;;-2.70;99.90;;;;;;10302638;28;20228;-77
2024/01/19 04:54:36;;;;;;;20.30;9.10;;;-2.70;99.90;;;;;;10368886;28;20210;-78
2024/01/19 04:59:57;;;;;;;21.50;9.53;;;-2.80;99.90;;;;;;10268964;28;20221;-78
2024/01/19 05:05:18;;;;;;;18.30;8.00;;;-2.80;99.90;;;;;;10368673;28;20273;-79
2024/01/19 05:10:42;;;;;;;17.37;8.33;;;-2.80;99.90;;;;;;10388689;28;20271;-77
2024/01/19 05:16:04;;;;;;;20.83;8.23;;;-2.80;99.90;;;;;;10307698;28;20420;-77
2024/01/19 05:21:25;;;;;;;19.47;8.87;;;-2.70;99.90;;;;;;10308166;28;20240;-77
2024/01/19 05:26:46;;;;;;;16.03;8.20;;;-2.80;99.90;;;;;;10408603;28;20202;-79
2024/01/19 05:32:09;;;;;;;20.57;8.90;;;-2.80;99.90;;;;;;10308075;28;20403;-76
2024/01/19 05:37:30;;;;;;;17.73;8.63;;;-2.70;99.90;;;;;;10282029;28;20221;-78
2024/01/19 05:42:51;;;;;;;25.00;9.13;;;-2.70;49.50;;;;;;10271240;28;20232;-76
2024/01/19 05:48:12;;;;;;;26.37;12.00;;;-2.90;99.90;;;;;;10271101;29;20191;-80
2024/01/19 05:53:33;;;;;;;20.57;9.83;;;-2.80;99.90;;;;;;10273371;29;20193;-78
2024/01/19 05:58:55;;;;;;;22.53;10.20;;;-2.90;99.90;;;;;;10364044;28;20507;-77
2024/01/19 06:04:17;;;;;;;22.57;8.87;;;-2.90;99.90;;;;;;10273420;28;20556;-76
2024/01/19 06:09:39;;;;;;;20.93;9.43;;;-2.80;99.90;;;;;;10285856;28;20222;-78
2024/01/19 06:15:00;;;;;;;19.23;9.57;;;-2.80;99.90;;;;;;10313832;28;20455;-78
2024/01/19 06:20:21;;;;;;;17.40;8.57;;;-2.70;99.90;;;;;;10366805;28;20238;-85
2024/01/19 06:25:42;;;;;;;34.70;15.43;;;-2.70;99.90;;;;;;10274456;28;20195;-80
2024/01/19 06:31:04;;;;;;;34.00;15.23;;;-2.70;99.90;;;;;;10292378;28;20307;-85
2024/01/19 06:36:27;;;;;;;38.03;15.60;;;-2.80;99.90;;;;;;10284871;28;20213;-84
2024/01/19 06:41:48;;;;;;;40.13;15.80;;;-2.80;99.90;;;;;;10533285;28;20450;-85
2024/01/19 06:47:10;;;;;;;25.43;13.43;;;-2.80;99.90;;;;;;10524589;28;20194;-81
2024/01/19 06:52:31;;;;;;;23.80;11.33;;;-2.80;99.90;;;;;;10523707;28;20210;-86
2024/01/19 06:57:52;;;;;;;18.23;8.50;;;-2.60;99.90;;;;;;10497470;28;20208;-87
2024/01/19 07:03:14;;;;;;;13.97;6.33;;;-2.40;99.90;;;;;;10298021;28;20541;-77
2024/01/19 07:08:36;;;;;;;15.37;8.07;;;-2.20;1.00;;;;;;10311920;28;20213;-77
2024/01/19 07:13:57;;;;;;;14.33;6.60;;;-2.10;44.10;;;;;;10382009;28;20214;-86
2024/01/19 07:19:18;;;;;;;11.90;4.93;;;-2.00;99.90;;;;;;10312954;28;20255;-85
2024/01/19 07:24:40;;;;;;;15.47;5.93;;;-1.80;89.50;;;;;;10413658;28;20198;-86
2024/01/19 07:30:01;;;;;;;17.83;7.67;;;-1.80;99.90;;;;;;10293600;28;20416;-80
2024/01/19 07:35:23;;;;;;;16.07;6.80;;;-1.70;99.90;;;;;;10371543;28;20271;-79
2024/01/19 07:40:44;;;;;;;13.43;7.17;;;-1.70;99.90;;;;;;10510366;28;20192;-78
2024/01/19 07:46:05;;;;;;;13.53;5.07;;;-1.70;82.40;;;;;;10521405;28;20210;-83
2024/01/19 07:51:27;;;;;;;14.50;5.10;;;-1.60;99.90;;;;;;10508881;28;20234;-78
2024/01/19 07:56:48;;;;;;;13.63;5.53;;;-1.60;99.90;;;;;;10520395;28;20191;-81
2024/01/19 08:02:10;;;;;;;17.07;8.10;;;-1.60;99.90;;;;;;10295826;28;20217;-78
2024/01/19 08:07:31;;;;;;;14.03;6.37;;;-1.50;99.90;;;;;;10310190;28;20216;-79
2024/01/19 08:12:52;;;;;;;23.10;7.87;;;-1.40;59.80;;;;;;10410795;28;20547;-79
2024/01/19 08:18:14;;;;;;;24.13;9.93;;;-1.30;1.00;;;;;;10319208;28;20243;-79
2024/01/19 08:23:37;;;;;;;20.00;9.90;;;-1.40;1.00;;;;;;10281201;28;20227;-78
2024/01/19 08:29:00;;;;;;;23.37;10.20;;;-1.40;11.40;;;;;;10339974;28;20230;-77
2024/01/19 08:34:21;;;;;;;25.00;10.77;;;-1.50;99.90;;;;;;10287230;28;20203;-77
2024/01/19 08:39:44;;;;;;;26.43;11.87;;;-1.40;99.90;;;;;;10482107;28;20241;-78
2024/01/19 08:45:06;;;;;;;25.07;9.53;;;-1.30;99.90;;;;;;10495184;28;20197;-77
2024/01/19 08:50:28;;;;;;;17.47;8.40;;;-1.40;1.00;;;;;;10303707;28;20244;-77
2024/01/19 08:55:51;;;;;;;26.87;11.27;;;-1.20;99.90;;;;;;10303608;28;20262;-78
2024/01/19 09:01:19;;;;;;;14.13;7.67;;;-1.10;29.10;;;;;;10433926;28;20499;-85
2024/01/19 09:06:41;;;;;;;18.73;10.50;;;-1.00;1.00;;;;;;10304168;28;20206;-77
2024/01/19 09:12:05;;;;;;;15.60;8.40;;;-1.00;46.00;;;;;;10404058;28;20310;-77
2024/01/19 09:17:26;;;;;;;15.83;6.83;;;-0.80;1.00;;;;;;10303220;28;20589;-77
2024/01/19 09:22:48;;;;;;;21.43;7.73;;;-0.70;1.00;;;;;;10303656;28;20372;-80
2024/01/19 09:28:09;;;;;;;21.93;8.33;;;-0.60;1.00;;;;;;10307666;28;20206;-78
2024/01/19 09:33:30;;;;;;;22.13;9.33;;;-0.60;1.00;;;;;;10310368;28;20239;-75
2024/01/19 09:38:52;;;;;;;14.57;7.50;;;-0.50;1.00;;;;;;10361181;28;20194;-77
2024/01/19 09:44:17;;;;;;;17.87;6.90;;;-0.50;1.00;;;;;;10387893;28;20265;-79
2024/01/19 09:49:44;;;;;;;20.57;8.20;;;-0.30;1.00;;;;;;10309697;28;20225;-77
2024/01/19 09:55:05;;;;;;;19.43;7.93;;;0.00;1.00;;;;;;10310045;28;20239;-77
2024/01/19 10:00:28;;;;;;;14.33;7.00;;;0.10;1.00;;;;;;10309231;28;20259;-75
2024/01/19 10:05:52;;;;;;;15.93;7.30;;;0.30;1.00;;;;;;10334599;28;20216;-77
2024/01/19 10:11:15;;;;;;;7.23;4.57;;;0.60;99.90;;;;;;10323163;28;20263;-80
2024/01/19 10:16:37;;;;;;;8.30;4.63;;;0.70;99.90;;;;;;10378954;28;20281;-82
2024/01/19 10:22:25;;;;;;;8.33;4.03;;;0.60;99.90;;;;;;10298636;28;20213;-81
2024/01/19 10:27:48;;;;;;;7.47;3.90;;;0.50;1.00;;;;;;10312244;28;20210;-78
2024/01/19 10:33:09;;;;;;;6.70;3.97;;;0.40;1.00;;;;;;10308958;28;20247;-75
2024/01/19 10:38:31;;;;;;;10.77;5.00;;;0.50;1.00;;;;;;10328697;28;20186;-74
2024/01/19 10:44:08;;;;;;;12.73;5.00;;;0.60;1.00;;;;;;10518345;28;20225;-76
2024/01/19 10:49:29;;;;;;;8.40;4.37;;;0.60;1.00;;;;;;10517696;28;20202;-74
2024/01/19 10:54:51;;;;;;;7.13;3.63;;;0.60;1.00;;;;;;10519235;28;20726;-77
2024/01/19 11:00:27;;;;;;;12.03;5.73;;;0.90;1.00;;;;;;10403517;28;20287;-76
2024/01/19 11:05:49;;;;;;;5.90;3.50;;;1.00;1.00;;;;;;10391466;28;20207;-75
2024/01/19 11:11:10;;;;;;;5.30;3.30;;;1.00;99.90;;;;;;10337937;28;20472;-76
2024/01/19 11:16:42;;;;;;;9.00;3.53;;;1.10;99.90;;;;;;10324799;28;20528;-77
2024/01/19 11:22:05;;;;;;;9.40;3.43;;;1.10;99.90;;;;;;10451952;28;20410;-75
2024/01/19 11:27:36;;;;;;;7.40;2.97;;;1.30;99.90;;;;;;10470601;28;20212;-77
2024/01/19 11:33:15;;;;;;;5.93;2.93;;;1.40;99.90;;;;;;10306160;28;20233;-75
2024/01/19 11:38:44;;;;;;;7.30;3.27;;;1.20;1.00;;;;;;10332024;28;20389;-76
2024/01/19 11:44:07;;;;;;;6.70;3.53;;;1.10;1.00;;;;;;10516133;28;20206;-77
2024/01/19 11:49:38;;;;;;;9.37;5.60;;;1.00;99.90;;;;;;10514837;28;20277;-80
2024/01/19 11:55:38;;;;;;;11.27;5.33;;;1.10;1.00;;;;;;10516175;28;20398;-77
2024/01/19 12:01:01;;;;;;;8.40;4.27;;;1.10;24.20;;;;;;10306034;28;20261;-75
2024/01/19 12:06:23;;;;;;;9.13;4.03;;;1.10;1.00;;;;;;10285881;28;20442;-75
2024/01/19 12:11:45;;;;;;;11.57;4.33;;;1.20;1.00;;;;;;10271755;28;20244;-76
2024/01/19 12:17:06;;;;;;;9.27;3.97;;;1.30;1.00;;;;;;10388686;28;20304;-76
2024/01/19 12:22:27;;;;;;;7.63;2.97;;;1.40;99.90;;;;;;10294608;28;20245;-79
2024/01/19 12:27:49;;;;;;;10.83;4.10;;;1.50;99.90;;;;;;10286875;28;20221;-76
2024/01/19 12:33:19;;;;;;;18.60;9.53;;;1.60;99.90;;;;;;10303035;28;20295;-78
2024/01/19 12:38:40;;;;;;;7.50;3.57;;;1.50;1.00;;;;;;10362695;28;20199;-78
2024/01/19 12:44:01;;;;;;;7.73;3.40;;;1.50;99.90;;;;;;10510879;28;20439;-82
2024/01/19 12:49:23;;;;;;;4.40;2.20;;;1.40;99.90;;;;;;10497302;28;20200;-76
2024/01/19 12:54:44;;;;;;;4.83;2.53;;;1.20;1.00;;;;;;10511128;28;20222;-78
2024/01/19 13:00:11;;;;;;;8.40;3.47;;;1.20;1.00;;;;;;10388268;28;20567;-75
2024/01/19 13:05:33;;;;;;;8.43;3.77;;;1.20;99.90;;;;;;10299249;28;20212;-76
2024/01/19 13:11:13;;;;;;;8.77;3.10;;;1.20;99.90;;;;;;10300542;28;20511;-77
2024/01/19 13:16:54;;;;;;;7.40;3.03;;;1.30;99.90;;;;;;10404010;28;20216;-81
2024/01/19 13:22:16;;;;;;;11.67;4.57;;;1.30;99.90;;;;;;10292454;28;20252;-77
2024/01/19 13:27:38;;;;;;;6.40;2.33;;;1.30;99.90;;;;;;10322325;28;20219;-78
2024/01/19 13:33:02;;;;;;;7.83;3.37;;;1.50;99.90;;;;;;10300774;28;20527;-78
2024/01/19 13:38:25;;;;;;;8.20;3.50;;;1.40;99.90;;;;;;10331996;28;20236;-80
2024/01/19 13:43:48;;;;;;;9.40;2.67;;;1.40;99.90;;;;;;10496089;28;20388;-80
2024/01/19 13:49:12;;;;;;;5.30;2.50;;;1.50;99.90;;;;;;10495985;28;20210;-77
2024/01/19 13:54:34;;;;;;;9.27;3.27;;;1.50;99.90;;;;;;10509333;28;20223;-77
2024/01/19 13:59:58;;;;;;;6.53;3.30;;;1.40;99.90;;;;;;10298357;28;20257;-78
2024/01/19 14:05:22;;;;;;;5.90;2.97;;;1.30;99.90;;;;;;10259043;28;20222;-82
2024/01/19 14:10:48;;;;;;;10.33;2.37;;;1.20;99.90;;;;;;10285283;28;20223;-77
2024/01/19 14:16:10;;;;;;;7.70;3.20;;;1.30;99.90;;;;;;10377389;28;20530;-79
2024/01/19 14:21:31;;;;;;;7.30;2.40;;;1.20;99.90;;;;;;10303301;28;20276;-81
2024/01/19 14:26:52;;;;;;;8.07;3.50;;;1.10;99.90;;;;;;10304597;28;20206;-77
2024/01/19 14:32:17;;;;;;;7.40;2.80;;;1.20;99.90;;;;;;10392527;28;20222;-81
2024/01/19 14:37:38;;;;;;;21.67;6.87;;;1.20;99.90;;;;;;10290678;28;20274;-76
2024/01/19 14:43:00;;;;;;;8.50;3.00;;;1.20;99.90;;;;;;10351291;28;20213;-77
2024/01/19 14:48:22;;;;;;;4.63;2.70;;;1.20;99.90;;;;;;10265908;28;20194;-80
2024/01/19 14:53:44;;;;;;;11.53;3.57;;;1.10;99.90;;;;;;10273111;28;20546;-81
2024/01/19 14:59:06;;;;;;;7.57;3.23;;;0.90;99.90;;;;;;10266290;28;20200;-82
2024/01/19 15:04:27;;;;;;;11.47;4.67;;;0.80;99.90;;;;;;10403031;28;20570;-77
2024/01/19 15:09:49;;;;;;;5.47;2.67;;;0.70;1.00;;;;;;10278761;28;20254;-79
2024/01/19 15:15:10;;;;;;;6.10;2.90;;;0.60;1.00;;;;;;10277096;28;20504;-76
2024/01/19 15:20:31;;;;;;;7.17;2.80;;;0.40;1.00;;;;;;10301024;28;20300;-80
2024/01/19 15:25:54;;;;;;;7.27;3.00;;;0.30;1.00;;;;;;10313357;28;20239;-80
2024/01/19 15:31:22;;;;;;;9.07;4.37;;;0.40;1.00;;;;;;10289687;28;20244;-80
2024/01/19 15:36:44;;;;;;;61.17;34.27;;;0.30;1.00;;;;;;10303193;28;20232;-77
2024/01/19 15:42:06;;;;;;;11.53;5.70;;;0.30;1.00;;;;;;10523252;28;20401;-77
2024/01/19 15:47:31;;;;;;;12.07;5.47;;;0.40;1.00;;;;;;10515502;28;20331;-78
2024/01/19 15:52:56;;;;;;;12.20;5.30;;;0.40;1.00;;;;;;10512390;28;20252;-79
2024/01/19 15:58:19;;;;;;;15.37;5.57;;;0.40;1.00;;;;;;10513390;28;20412;-78
2024/01/19 16:03:43;;;;;;;18.10;5.13;;;0.30;1.00;;;;;;10368343;28;20247;-79
2024/01/19 16:09:05;;;;;;;17.20;5.03;;;0.30;1.00;;;;;;10342588;28;20188;-78
2024/01/19 16:14:27;;;;;;;9.73;4.07;;;0.40;1.00;;;;;;10308972;28;20261;-77
2024/01/19 16:19:53;;;;;;;16.93;5.67;;;0.40;1.00;;;;;;10309565;28;20236;-79
2024/01/19 16:25:16;;;;;;;21.30;7.90;;;0.30;1.00;;;;;;10309609;28;20424;-79
2024/01/19 16:30:43;;;;;;;17.27;7.83;;;0.20;1.00;;;;;;10308435;28;20531;-78
2024/01/19 16:36:06;;;;;;;13.73;6.27;;;0.10;1.00;;;;;;10269341;28;20202;-78
2024/01/19 16:41:27;;;;;;;15.93;6.27;;;0.00;1.00;;;;;;10307888;28;20204;-79
2024/01/19 16:46:48;;;;;;;18.60;7.97;;;-0.10;1.00;;;;;;10395461;28;20213;-80
2024/01/19 16:52:09;;;;;;;21.53;8.50;;;0.00;1.00;;;;;;10379174;28;20506;-79
2024/01/19 16:57:31;;;;;;;25.93;10.17;;;-0.10;1.00;;;;;;10379197;28;20593;-79
2024/01/19 17:02:52;;;;;;;20.17;6.63;;;-0.20;1.00;;;;;;10300732;28;20207;-78
2024/01/19 17:08:13;;;;;;;22.17;9.03;;;-0.20;15.50;;;;;;10317326;28;20196;-80
2024/01/19 17:13:34;;;;;;;17.57;7.17;;;-0.10;1.00;;;;;;10282587;28;20476;-78
2024/01/19 17:18:56;;;;;;;27.50;11.63;;;-0.10;1.00;;;;;;10357945;28;20235;-79
2024/01/19 17:24:17;;;;;;;20.27;7.80;;;-0.20;19.40;;;;;;10377818;28;20206;-82
2024/01/19 17:29:38;;;;;;;20.80;8.43;;;-0.10;93.00;;;;;;10271777;28;20487;-79
2024/01/19 17:35:00;;;;;;;17.60;6.37;;;0.00;1.00;;;;;;10277088;28;20230;-79
2024/01/19 17:40:21;;;;;;;18.47;6.47;;;0.10;99.90;;;;;;10304976;28;20280;-81
2024/01/19 17:45:42;;;;;;;9.83;3.90;;;0.20;45.60;;;;;;10345491;28;20275;-78
2024/01/19 17:51:04;;;;;;;19.63;5.30;;;0.20;1.00;;;;;;10326916;28;20304;-79
2024/01/19 17:56:25;;;;;;;32.23;9.80;;;0.30;1.00;;;;;;10314418;28;20474;-79
2024/01/19 18:01:46;;;;;;;15.40;6.47;;;0.40;1.00;;;;;;10315420;28;20248;-79
2024/01/19 18:07:08;;;;;;;14.17;6.20;;;0.40;1.00;;;;;;10435811;28;20238;-79
2024/01/19 18:12:29;;;;;;;20.33;6.60;;;0.40;1.00;;;;;;10354091;28;20411;-79
2024/01/19 18:17:50;;;;;;;14.77;3.93;;;0.40;16.30;;;;;;10353308;28;20231;-78
2024/01/19 18:23:11;;;;;;;17.37;5.17;;;0.40;1.00;;;;;;10326614;28;20208;-79
2024/01/19 18:28:32;;;;;;;13.93;4.30;;;0.40;94.70;;;;;;10324514;28;20200;-79
2024/01/19 18:33:54;;;;;;;25.57;5.50;;;0.40;99.90;;;;;;10414657;28;20331;-79
2024/01/19 18:39:15;;;;;;;17.60;5.73;;;0.40;1.00;;;;;;10433025;28;20209;-81
2024/01/19 18:44:36;;;;;;;21.77;6.30;;;0.40;1.00;;;;;;10397626;28;20205;-82
2024/01/19 18:49:58;;;;;;;39.70;9.53;;;0.30;99.90;;;;;;10304694;28;20230;-78
2024/01/19 18:55:19;;;;;;;17.63;5.87;;;0.40;96.20;;;;;;10382756;28;20238;-78
2024/01/19 19:00:41;;;;;;;16.37;5.90;;;0.30;1.00;;;;;;10311559;28;20211;-79
2024/01/19 19:06:03;;;;;;;15.50;6.00;;;0.30;1.00;;;;;;10415584;28;20531;-80
2024/01/19 19:11:25;;;;;;;25.37;7.77;;;0.30;1.00;;;;;;10406787;28;20237;-79
2024/01/19 19:16:47;;;;;;;21.93;7.00;;;0.30;1.00;;;;;;10285219;28;20199;-78
2024/01/19 19:22:08;;;;;;;17.63;7.27;;;0.30;99.90;;;;;;10341444;28;20453;-79
2024/01/19 19:27:30;;;;;;;27.37;7.93;;;0.40;99.90;;;;;;10271164;28;20393;-79
2024/01/19 19:32:51;;;;;;;20.63;6.43;;;0.40;1.00;;;;;;10270733;28;20304;-78
2024/01/19 19:38:12;;;;;;;20.33;6.57;;;0.40;1.00;;;;;;10298437;28;20212;-79
2024/01/19 19:43:33;;;;;;;19.03;7.13;;;0.40;99.90;;;;;;10410682;28;20199;-80
2024/01/19 19:48:55;;;;;;;14.20;5.43;;;0.50;1.00;;;;;;10310353;28;20384;-81
2024/01/19 19:54:18;;;;;;;16.47;7.10;;;0.40;1.00;;;;;;10309255;28;20277;-78
2024/01/19 19:59:39;;;;;;;16.63;7.80;;;0.50;18.50;;;;;;10458699;28;20530;-78
2024/01/19 20:05:01;;;;;;;18.07;7.27;;;0.50;88.30;;;;;;10467130;28;20252;-79
2024/01/19 20:10:22;;;;;;;16.10;5.80;;;0.40;1.00;;;;;;10529716;28;20532;-80
2024/01/19 20:15:44;;;;;;;19.73;6.33;;;0.40;99.90;;;;;;10520739;28;20193;-80
2024/01/19 20:21:07;;;;;;;20.20;8.20;;;0.30;1.00;;;;;;10505323;28;20245;-79
2024/01/19 20:26:31;;;;;;;17.67;6.83;;;0.40;1.00;;;;;;10481984;28;20193;-80
2024/01/19 20:31:52;;;;;;;25.40;7.90;;;0.30;99.90;;;;;;10269178;28;20238;-80
2024/01/19 20:37:13;;;;;;;20.63;8.83;;;0.40;1.00;;;;;;10381597;28;20205;-80
2024/01/19 20:42:35;;;;;;;13.20;6.03;;;0.40;99.90;;;;;;10443055;28;20410;-79
2024/01/19 20:47:56;;;;;;;20.57;7.83;;;0.40;1.00;;;;;;10415480;28;20433;-79
2024/01/19 20:53:18;;;;;;;20.63;8.67;;;0.40;99.90;;;;;;10286021;28;20221;-78
2024/01/19 20:58:42;;;;;;;21.10;6.87;;;0.40;99.90;;;;;;10398721;28;20201;-79
2024/01/19 21:04:03;;;;;;;25.67;9.67;;;0.40;1.00;;;;;;10281881;28;20210;-79
2024/01/19 21:09:24;;;;;;;18.03;7.13;;;0.50;41.60;;;;;;10292468;28;20495;-78
2024/01/19 21:14:46;;;;;;;19.83;7.57;;;0.50;1.00;;;;;;10416186;28;20300;-78
2024/01/19 21:20:09;;;;;;;13.20;6.53;;;0.40;99.90;;;;;;10524675;28;20234;-78
2024/01/19 21:25:30;;;;;;;30.57;11.23;;;0.50;99.90;;;;;;10514876;28;20202;-79
2024/01/19 21:30:51;;;;;;;23.83;8.63;;;0.60;1.00;;;;;;10512060;28;20223;-79
2024/01/19 21:36:16;;;;;;;16.23;7.97;;;0.60;1.00;;;;;;10526989;28;20258;-78
2024/01/19 21:41:47;;;;;;;16.57;6.10;;;0.60;1.00;;;;;;10392998;28;20198;-80
2024/01/19 21:47:09;;;;;;;12.07;5.80;;;0.70;1.00;;;;;;10421875;28;20484;-78
2024/01/19 21:52:30;;;;;;;18.13;7.57;;;0.70;1.00;;;;;;10463704;28;20222;-78
2024/01/19 21:57:54;;;;;;;15.27;5.93;;;0.70;1.00;;;;;;10398503;28;20222;-78
2024/01/19 22:03:15;;;;;;;11.93;5.40;;;0.80;1.00;;;;;;10300038;28;20212;-79
2024/01/19 22:08:36;;;;;;;13.07;5.60;;;0.70;10.10;;;;;;10385292;28;20284;-79
2024/01/19 22:13:58;;;;;;;12.30;6.23;;;0.70;99.90;;;;;;10314395;28;20225;-80
2024/01/19 22:19:21;;;;;;;12.97;5.73;;;0.80;99.90;;;;;;10400570;28;20244;-79
2024/01/19 22:24:42;;;;;;;11.93;4.40;;;0.80;99.90;;;;;;10398304;28;20201;-79
2024/01/19 22:30:04;;;;;;;9.07;4.80;;;0.70;1.00;;;;;;10381328;28;20260;-78
2024/01/19 22:35:28;;;;;;;11.57;5.13;;;0.80;1.00;;;;;;10342586;28;20234;-80
2024/01/19 22:40:49;;;;;;;8.23;4.43;;;0.90;99.90;;;;;;10305177;28;20202;-79
2024/01/19 22:46:11;;;;;;;8.00;4.13;;;0.90;99.90;;;;;;10377153;28;20500;-79
2024/01/19 22:51:32;;;;;;;4.57;3.00;;;0.80;99.90;;;;;;10335939;28;20452;-78
2024/01/19 22:56:53;;;;;;;10.43;4.10;;;0.90;41.20;;;;;;10311948;28;20201;-80
2024/01/19 23:02:14;;;;;;;8.10;3.87;;;0.90;99.90;;;;;;10335286;28;20516;-79
2024/01/19 23:07:36;;;;;;;8.40;3.97;;;0.90;1.00;;;;;;10375397;28;20229;-80
2024/01/19 23:12:58;;;;;;;9.50;4.03;;;1.10;99.90;;;;;;10272528;28;20301;-80
2024/01/19 23:18:19;;;;;;;8.57;4.07;;;1.00;1.00;;;;;;10355892;28;20269;-79
2024/01/19 23:23:40;;;;;;;9.97;4.93;;;1.00;1.00;;;;;;10289526;28;20203;-80
2024/01/19 23:29:04;;;;;;;7.20;4.00;;;1.00;1.00;;;;;;10306351;28;20286;-80
2024/01/19 23:34:26;;;;;;;8.50;4.73;;;1.00;1.00;;;;;;10375224;28;20262;-80
2024/01/19 23:39:47;;;;;;;10.60;4.67;;;1.00;1.00;;;;;;10302143;28;20522;-81
2024/01/19 23:45:08;;;;;;;7.80;4.30;;;1.10;99.90;;;;;;10300022;28;20222;-78
2024/01/19 23:50:30;;;;;;;8.70;4.07;;;1.10;99.90;;;;;;10471468;28;20199;-78
2024/01/19 23:55:51;;;;;;;6.93;4.23;;;1.10;99.90;;;;;;10337640;28;20222;-79
